Santa Barbara — 3FWW8 — position and weather

sailwx.info

Track history (hours):
 
Tides and Currents Weather Stations Pressure Air Temp Water Temp Dewpoint Dewpoint Depression Visibility Wind Speed Wind Dir Waves Ship Positions

Santa Barbara

Last reported at 2015-Aug-21 19:24 UTC. Time now 2015-Aug-28 05:13 UTC.
Position N 28°57' E 032°49'.

Length 225 m; draft 12.9 m.

Type: Ship (hazmat cat A). MMSI: 372230000.

Date/timePositionNaut miles runAvg speedWind from/ knotsBaromVisibWave heightAir tempDewpointWater temp
2015-Aug-21 19:24N 28°57' E 032°49'148 6.9
2015-Aug-20 22:09N 31°23' E 032°19'0 0.0
2015-Aug-20 21:15N 31°23' E 032°19'0 0.0
2015-Aug-20 17:33N 31°23' E 032°19'15 1.7
2015-Aug-20 08:29N 31°35' E 032°08'18 9.2
2015-Aug-20 06:33N 31°48' E 031°54'1212.3
2015-Aug-20 05:33N 31°53' E 031°41'3 2.8
2015-Aug-20 04:33N 31°55' E 031°39'2211.1
2015-Aug-20 02:33N 32°02' E 031°14'2713.4
2015-Aug-20 00:32N 32°10' E 030°43'1813.6
2015-Aug-19 23:13N 32°16' E 030°24'4612.5
2015-Aug-19 19:32N 32°41' E 029°38'2913.2
2015-Aug-19 17:22N 32°46' E 029°04'1713.5
2015-Aug-19 16:04N 32°51' E 028°44'913.8
2015-Aug-19 15:25N 32°52' E 028°34'1214.1
2015-Aug-19 14:33N 32°55' E 028°19'1614.4
2015-Aug-19 13:26N 32°58' E 028°01'1314.6
2015-Aug-19 12:33N 33°00' E 027°46'49313.6
2015-Aug-18 00:26N 35°24' E 018°16'9513.6
2015-Aug-17 17:30N 35°53' E 016°25'1313.3
2015-Aug-17 16:33N 35°56' E 016°10'2713.4
2015-Aug-17 14:31N 36°05' E 015°38'4213.4
2015-Aug-17 11:24N 36°17' E 014°48'1113.4
2015-Aug-17 10:33N 36°21' E 014°35'1313.3
2015-Aug-17 09:34N 36°25' E 014°19'1313.2
2015-Aug-17 08:33N 36°29' E 014°04'1313.2
2015-Aug-17 07:34N 36°33' E 013°48'1813.3
2015-Aug-17 06:10N 36°38' E 013°26'65913.7
2015-Aug-15 06:05N 36°37' W 000°14'813.3
2015-Aug-15 05:28N 36°35' W 000°25'1313.6
2015-Aug-15 04:33N 36°34' W 000°40'  
2015-Aug-12 01:03N 27°13' W 015°17'711.5
2015-Aug-12 00:29N 27°07' W 015°19'1212.0
2015-Aug-11 23:31N 26°56' W 015°24'  
Track history (hours):
 
Tides and Currents Weather Stations Pressure Air Temp Water Temp Dewpoint Dewpoint Depression Visibility Wind Speed Wind Dir Waves Ship Positions

Santa Barbara

Last reported at 2015-Aug-21 19:24 UTC. Time now 2015-Aug-28 05:13 UTC.
Position N 28°57' E 032°49'.

Length 225 m; draft 12.9 m.

Type: Ship (hazmat cat A). MMSI: 372230000.

Date/timePositionNaut miles runAvg speedWind from/ knotsBaromVisibWave heightAir tempDewpointWater temp
2015-Aug-21 19:24N 28°57' E 032°49'148 6.9
2015-Aug-20 22:09N 31°23' E 032°19'0 0.0
2015-Aug-20 21:15N 31°23' E 032°19'0 0.0
2015-Aug-20 17:33N 31°23' E 032°19'15 1.7
2015-Aug-20 08:29N 31°35' E 032°08'18 9.2
2015-Aug-20 06:33N 31°48' E 031°54'1212.3
2015-Aug-20 05:33N 31°53' E 031°41'3 2.8
2015-Aug-20 04:33N 31°55' E 031°39'2211.1
2015-Aug-20 02:33N 32°02' E 031°14'2713.4
2015-Aug-20 00:32N 32°10' E 030°43'1813.6
2015-Aug-19 23:13N 32°16' E 030°24'4612.5
2015-Aug-19 19:32N 32°41' E 029°38'2913.2
2015-Aug-19 17:22N 32°46' E 029°04'1713.5
2015-Aug-19 16:04N 32°51' E 028°44'913.8
2015-Aug-19 15:25N 32°52' E 028°34'1214.1
2015-Aug-19 14:33N 32°55' E 028°19'1614.4
2015-Aug-19 13:26N 32°58' E 028°01'1314.6
2015-Aug-19 12:33N 33°00' E 027°46'49313.6
2015-Aug-18 00:26N 35°24' E 018°16'9513.6
2015-Aug-17 17:30N 35°53' E 016°25'1313.3
2015-Aug-17 16:33N 35°56' E 016°10'2713.4
2015-Aug-17 14:31N 36°05' E 015°38'4213.4
2015-Aug-17 11:24N 36°17' E 014°48'1113.4
2015-Aug-17 10:33N 36°21' E 014°35'1313.3
2015-Aug-17 09:34N 36°25' E 014°19'1313.2
2015-Aug-17 08:33N 36°29' E 014°04'1313.2
2015-Aug-17 07:34N 36°33' E 013°48'1813.3
2015-Aug-17 06:10N 36°38' E 013°26'65913.7
2015-Aug-15 06:05N 36°37' W 000°14'813.3
2015-Aug-15 05:28N 36°35' W 000°25'1313.6
2015-Aug-15 04:33N 36°34' W 000°40'  
2015-Aug-12 01:03N 27°13' W 015°17'711.5
2015-Aug-12 00:29N 27°07' W 015°19'1212.0
2015-Aug-11 23:31N 26°56' W 015°24'  

Dump ship's entire track history